createdAt,value
2018-06-01T00:00:19.614Z,20.87
2018-06-01T00:01:19.806Z,20.82
2018-06-01T00:02:19.979Z,20.78
2018-06-01T00:03:20.156Z,20.81
2018-06-01T00:04:20.360Z,20.93
2018-06-01T00:05:20.537Z,20.96
2018-06-01T00:06:20.720Z,20.93
2018-06-01T00:07:20.907Z,20.85
2018-06-01T00:08:21.087Z,20.96
2018-06-01T00:09:21.266Z,20.84
2018-06-01T00:10:21.527Z,20.77
2018-06-01T00:11:21.639Z,20.78
2018-06-01T00:12:21.821Z,20.75
2018-06-01T00:13:22.011Z,20.78
2018-06-01T00:14:22.200Z,20.67
2018-06-01T00:15:22.386Z,20.67
2018-06-01T00:16:22.551Z,20.67
2018-06-01T00:17:22.765Z,20.70
2018-06-01T00:18:22.915Z,20.80
2018-06-01T00:19:23.097Z,20.87
2018-06-01T00:20:23.285Z,20.81
2018-06-01T00:21:23.479Z,20.90
2018-06-01T00:22:23.651Z,20.96
2018-06-01T00:23:23.842Z,20.99
2018-06-01T00:24:24.040Z,21.03
2018-06-01T00:25:24.251Z,21.12
2018-06-01T00:26:24.398Z,21.17
2018-06-01T00:27:24.583Z,21.15
2018-06-01T00:28:24.764Z,21.15
2018-06-01T00:29:24.944Z,21.09
2018-06-01T00:30:25.117Z,21.05
2018-06-01T00:31:25.304Z,20.99
2018-06-01T00:32:25.470Z,20.78
2018-06-01T00:33:25.676Z,20.82
2018-06-01T00:34:25.846Z,20.84
2018-06-01T00:35:26.032Z,20.95
2018-06-01T00:36:26.215Z,21.03
2018-06-01T00:37:26.398Z,21.03
2018-06-01T00:38:26.837Z,20.80
2018-06-01T00:39:26.771Z,20.40
2018-06-01T00:40:26.950Z,20.24
2018-06-01T00:41:27.129Z,20.26
2018-06-01T00:42:27.318Z,20.40
2018-06-01T00:43:27.499Z,20.50
2018-06-01T00:44:27.693Z,20.55
2018-06-01T00:45:27.881Z,20.62
2018-06-01T00:46:28.049Z,20.66
2018-06-01T00:47:28.233Z,20.78
2018-06-01T00:48:28.417Z,20.74
2018-06-01T00:49:28.593Z,20.69
2018-06-01T00:50:28.779Z,20.66
2018-06-01T00:51:28.968Z,20.69
2018-06-01T00:52:29.146Z,20.58
2018-06-01T00:53:29.330Z,20.56
2018-06-01T00:54:29.515Z,20.52
2018-06-01T00:55:29.701Z,20.60
2018-06-01T00:56:29.889Z,20.51
2018-06-01T00:57:30.075Z,20.59
2018-06-01T00:58:30.250Z,20.60
2018-06-01T00:59:30.418Z,20.65
2018-06-01T01:00:30.599Z,20.66
2018-06-01T01:01:30.782Z,20.60
2018-06-01T01:02:30.958Z,20.60
2018-06-01T01:03:31.146Z,20.66
2018-06-01T01:04:31.327Z,20.58
2018-06-01T01:05:31.525Z,20.56
2018-06-01T01:06:31.697Z,20.47
2018-06-01T01:07:31.875Z,20.47
2018-06-01T01:08:32.048Z,20.39
2018-06-01T01:09:32.233Z,20.32
2018-06-01T01:10:32.412Z,20.40
2018-06-01T01:11:32.605Z,20.44
2018-06-01T01:12:33.017Z,20.36
2018-06-01T01:13:32.982Z,20.55
2018-06-01T01:14:33.168Z,20.52
2018-06-01T01:15:33.352Z,20.51
2018-06-01T01:16:33.547Z,20.37
2018-06-01T01:17:33.759Z,20.37
2018-06-01T01:18:33.914Z,20.41
2018-06-01T01:19:34.342Z,20.47
2018-06-01T01:20:34.299Z,20.51
2018-06-01T01:21:34.464Z,20.56
2018-06-01T01:22:34.643Z,20.60
2018-06-01T01:23:34.829Z,20.58
2018-06-01T01:24:35.012Z,20.63
2018-06-01T01:25:35.208Z,20.66
2018-06-01T01:26:35.377Z,20.66
2018-06-01T01:27:35.563Z,20.59
2018-06-01T01:28:35.754Z,20.52
2018-06-01T01:29:35.927Z,20.43
2018-06-01T01:30:36.112Z,20.26
2018-06-01T01:31:36.302Z,20.13
2018-06-01T01:32:36.480Z,20.03
2018-06-01T01:33:36.661Z,20.09
2018-06-01T01:34:36.845Z,20.07
2018-06-01T01:35:37.021Z,19.96
2018-06-01T01:36:37.211Z,19.95
2018-06-01T01:37:37.384Z,20.02
2018-06-01T01:38:37.573Z,20.04
2018-06-01T01:39:37.750Z,19.94
2018-06-01T01:40:37.934Z,20.00
2018-06-01T01:41:38.139Z,20.04
2018-06-01T01:42:38.293Z,20.03
2018-06-01T01:43:38.466Z,20.10
2018-06-01T01:44:38.648Z,20.19
2018-06-01T01:45:38.834Z,20.10
2018-06-01T01:46:39.020Z,20.24
2018-06-01T01:47:39.202Z,20.10
2018-06-01T01:48:39.386Z,20.07
2018-06-01T01:49:39.571Z,20.11
2018-06-01T01:50:39.758Z,20.25
2018-06-01T01:51:39.940Z,20.09
2018-06-01T01:52:40.121Z,20.06
2018-06-01T01:53:40.309Z,20.00
2018-06-01T01:54:40.496Z,20.02
2018-06-01T01:55:40.666Z,20.07
2018-06-01T01:56:40.847Z,19.96
2018-06-01T01:57:41.033Z,19.95
2018-06-01T01:58:41.220Z,19.92
2018-06-01T01:59:41.407Z,19.95
2018-06-01T02:00:41.585Z,19.89
2018-06-01T02:01:41.769Z,19.84
2018-06-01T02:02:41.953Z,19.82
2018-06-01T02:03:42.133Z,19.66
2018-06-01T02:04:42.321Z,19.63
2018-06-01T02:05:42.502Z,19.74
2018-06-01T02:06:42.683Z,19.84
2018-06-01T02:07:42.864Z,19.89
2018-06-01T02:08:43.048Z,19.94
2018-06-01T02:09:43.237Z,19.95
2018-06-01T02:10:43.419Z,20.06
2018-06-01T02:11:43.598Z,19.94
2018-06-01T02:12:43.789Z,20.00
2018-06-01T02:13:43.964Z,19.92
2018-06-01T02:14:44.146Z,20.00
2018-06-01T02:15:44.334Z,19.91
2018-06-01T02:16:44.521Z,19.85
2018-06-01T02:17:44.705Z,19.82
2018-06-01T02:18:44.891Z,19.77
2018-06-01T02:19:45.080Z,19.74
2018-06-01T02:20:45.259Z,19.31
2018-06-01T02:21:45.443Z,19.39
2018-06-01T02:22:45.629Z,19.40
2018-06-01T02:23:45.815Z,19.63
2018-06-01T02:24:46.249Z,19.69
2018-06-01T02:25:46.178Z,19.64
2018-06-01T02:26:46.360Z,19.74
2018-06-01T02:27:46.542Z,19.76
2018-06-01T02:28:46.724Z,19.84
2018-06-01T02:29:46.911Z,19.85
2018-06-01T02:30:47.093Z,19.88
2018-06-01T02:31:47.283Z,19.81
2018-06-01T02:32:47.466Z,19.79
2018-06-01T02:33:47.634Z,19.95
2018-06-01T02:34:47.821Z,19.82
2018-06-01T02:35:48.010Z,19.91
2018-06-01T02:36:48.204Z,20.00
2018-06-01T02:37:48.374Z,19.94
2018-06-01T02:38:48.559Z,19.92
2018-06-01T02:39:48.736Z,19.91
2018-06-01T02:40:48.933Z,19.96
2018-06-01T02:41:49.111Z,20.07
2018-06-01T02:42:49.301Z,19.96
2018-06-01T02:43:49.481Z,20.06
2018-06-01T02:44:49.666Z,20.09
2018-06-01T02:45:49.848Z,19.95
2018-06-01T02:46:50.037Z,19.81
2018-06-01T02:47:50.216Z,19.73
2018-06-01T02:48:50.400Z,19.66
2018-06-01T02:49:50.584Z,19.51
2018-06-01T02:50:50.771Z,19.56
2018-06-01T02:51:50.966Z,19.48
2018-06-01T02:52:51.138Z,19.49
2018-06-01T02:53:51.319Z,19.55
2018-06-01T02:54:51.506Z,19.62
2018-06-01T02:55:51.691Z,19.62
2018-06-01T02:56:51.866Z,19.48
2018-06-01T02:57:52.052Z,19.40
2018-06-01T02:58:52.233Z,19.34
2018-06-01T02:59:52.420Z,19.44
2018-06-01T03:00:52.607Z,19.39
2018-06-01T03:01:52.790Z,19.34
2018-06-01T03:02:52.965Z,19.44
2018-06-01T03:03:53.150Z,19.49
2018-06-01T03:04:53.338Z,19.66
2018-06-01T03:05:53.517Z,19.62
2018-06-01T03:06:53.712Z,19.62
2018-06-01T03:07:53.892Z,19.71
2018-06-01T03:08:54.072Z,19.62
2018-06-01T03:09:54.263Z,19.70
2018-06-01T03:10:54.456Z,19.69
2018-06-01T03:11:54.637Z,19.40
2018-06-01T03:12:54.830Z,19.48
2018-06-01T03:13:55.031Z,19.45
2018-06-01T03:14:55.187Z,19.62
2018-06-01T03:15:55.372Z,19.59
2018-06-01T03:16:55.564Z,19.64
2018-06-01T03:17:55.739Z,19.64
2018-06-01T03:18:55.917Z,19.69
2018-06-01T03:19:56.101Z,19.71
2018-06-01T03:20:56.286Z,19.73
2018-06-01T03:21:56.464Z,19.82
2018-06-01T03:23:56.837Z,19.88
2018-06-01T03:24:57.023Z,19.94
2018-06-01T03:25:57.203Z,19.94
2018-06-01T03:26:57.380Z,19.99
2018-06-01T03:27:57.570Z,20.09
2018-06-01T03:28:57.748Z,20.06
2018-06-01T03:29:57.934Z,20.14
2018-06-01T03:30:58.125Z,20.04
2018-06-01T03:31:58.313Z,20.11
2018-06-01T03:32:58.483Z,20.22
2018-06-01T03:33:58.672Z,20.14
2018-06-01T03:34:58.854Z,20.04
2018-06-01T03:35:59.038Z,20.03
2018-06-01T03:36:59.589Z,20.10
2018-06-01T03:37:59.416Z,20.03
2018-06-01T03:38:59.591Z,19.86
2018-06-01T03:39:59.766Z,19.81
2018-06-01T03:40:59.952Z,19.63
2018-06-01T03:42:00.138Z,19.59
2018-06-01T03:43:00.324Z,19.76
2018-06-01T03:44:00.508Z,19.74
2018-06-01T03:45:00.703Z,19.81
2018-06-01T03:46:00.882Z,19.85
2018-06-01T03:47:01.061Z,19.91
2018-06-01T03:48:01.244Z,20.07
2018-06-01T03:49:01.428Z,20.03
2018-06-01T03:50:01.611Z,20.11
2018-06-01T03:51:01.801Z,20.14
2018-06-01T03:52:01.978Z,20.18
2018-06-01T03:53:02.163Z,20.21
2018-06-01T03:54:02.357Z,20.25
2018-06-01T03:55:02.526Z,20.11
2018-06-01T03:56:02.715Z,20.11
2018-06-01T03:57:02.896Z,20.28
2018-06-01T03:58:03.083Z,20.21
2018-06-01T03:59:03.263Z,20.37
2018-06-01T04:00:03.450Z,20.28
2018-06-01T04:01:03.639Z,20.40
2018-06-01T04:02:03.818Z,20.36
2018-06-01T04:03:03.997Z,20.39
2018-06-01T04:04:04.185Z,20.32
2018-06-01T04:05:04.367Z,20.50
2018-06-01T04:06:04.548Z,20.58
2018-06-01T04:07:04.741Z,20.56
2018-06-01T04:08:04.916Z,20.60
2018-06-01T04:09:05.095Z,20.60
2018-06-01T04:10:05.283Z,20.69
2018-06-01T04:11:05.468Z,20.70
2018-06-01T04:12:05.653Z,20.65
2018-06-01T04:13:05.838Z,20.48
2018-06-01T04:14:06.017Z,20.36
2018-06-01T04:15:06.204Z,20.51
2018-06-01T04:16:06.384Z,20.47
2018-06-01T04:17:06.563Z,20.34
2018-06-01T04:18:07.027Z,20.22
2018-06-01T04:19:06.938Z,20.50
2018-06-01T04:20:07.122Z,20.44
2018-06-01T04:21:07.306Z,20.50
2018-06-01T04:22:07.494Z,20.59
2018-06-01T04:23:07.674Z,20.87
2018-06-01T04:24:07.855Z,21.14
2018-06-01T04:25:08.043Z,21.24
2018-06-01T04:26:08.227Z,21.21
2018-06-01T04:27:08.410Z,21.32
2018-06-01T04:28:08.628Z,21.18
2018-06-01T04:29:08.777Z,21.12
2018-06-01T04:30:08.966Z,21.00
2018-06-01T04:31:09.139Z,21.02
2018-06-01T04:32:09.323Z,20.65
2018-06-01T04:33:09.527Z,20.56
2018-06-01T04:34:09.705Z,20.62
2018-06-01T04:35:09.890Z,20.63
2018-06-01T04:36:10.083Z,20.69
2018-06-01T04:37:10.268Z,20.80
2018-06-01T04:38:10.442Z,21.02
2018-06-01T04:39:10.625Z,21.22
2018-06-01T04:40:10.813Z,21.22
2018-06-01T04:41:11.005Z,21.48
2018-06-01T04:42:11.184Z,21.60
2018-06-01T04:43:11.363Z,21.69
2018-06-01T04:44:11.552Z,21.77
2018-06-01T04:45:11.740Z,21.85
2018-06-01T04:46:11.922Z,21.67
2018-06-01T04:47:12.117Z,21.80
2018-06-01T04:48:12.285Z,22.11
2018-06-01T04:49:12.754Z,22.41
2018-06-01T04:50:12.657Z,22.76
2018-06-01T04:51:12.852Z,23.23
2018-06-01T04:52:13.030Z,23.68
2018-06-01T04:53:13.214Z,23.78
2018-06-01T04:54:13.401Z,23.92
2018-06-01T04:55:13.591Z,23.54
2018-06-01T04:56:13.856Z,23.25
2018-06-01T04:57:13.954Z,23.51
2018-06-01T04:58:14.138Z,24.14
2018-06-01T04:59:14.332Z,24.73
2018-06-01T05:00:14.512Z,24.98
2018-06-01T05:01:14.693Z,24.55
2018-06-01T05:02:14.881Z,24.61
2018-06-01T05:03:15.071Z,24.89
2018-06-01T05:04:15.251Z,25.25
2018-06-01T05:05:15.445Z,25.26
2018-06-01T05:06:15.628Z,24.05
2018-06-01T05:07:15.817Z,23.46
2018-06-01T05:08:15.996Z,22.84
2018-06-01T05:09:16.185Z,22.44
2018-06-01T05:10:16.373Z,22.17
2018-06-01T05:11:16.571Z,22.18
2018-06-01T05:12:16.747Z,22.23
2018-06-01T05:13:16.941Z,21.96
2018-06-01T05:14:17.124Z,21.98
2018-06-01T05:15:17.315Z,21.95
2018-06-01T05:16:17.494Z,21.82
2018-06-01T05:17:17.686Z,21.79
2018-06-01T05:18:17.875Z,21.82
2018-06-01T05:19:18.069Z,21.76
2018-06-01T05:20:18.250Z,21.50
2018-06-01T05:21:18.438Z,21.32
2018-06-01T05:22:18.660Z,21.39
2018-06-01T05:23:18.807Z,21.36
2018-06-01T05:24:18.993Z,21.52
2018-06-01T05:25:19.182Z,21.54
2018-06-01T05:26:19.375Z,21.54
2018-06-01T05:27:19.557Z,21.42
2018-06-01T05:28:19.743Z,21.25
2018-06-01T05:29:19.924Z,21.11
2018-06-01T05:30:20.117Z,21.02
2018-06-01T05:31:20.295Z,21.00
2018-06-01T05:32:20.480Z,20.90
2018-06-01T05:33:20.667Z,21.21
2018-06-01T05:34:20.866Z,21.22
2018-06-01T05:35:21.064Z,21.33
2018-06-01T05:36:21.223Z,21.11
2018-06-01T05:37:21.407Z,21.20
2018-06-01T05:38:21.597Z,21.35
2018-06-01T05:39:21.780Z,21.50
2018-06-01T05:40:21.964Z,21.80
2018-06-01T05:41:22.158Z,22.10
2018-06-01T05:42:22.355Z,22.39
2018-06-01T05:43:22.526Z,22.47
2018-06-01T05:44:22.720Z,22.06
2018-06-01T05:45:22.899Z,22.11
2018-06-01T05:46:23.080Z,22.06
2018-06-01T05:47:23.320Z,22.13
2018-06-01T05:48:23.459Z,22.15
2018-06-01T05:49:23.643Z,22.20
2018-06-01T05:50:23.828Z,22.28
2018-06-01T05:51:24.013Z,21.61
2018-06-01T05:52:24.209Z,21.75
2018-06-01T05:53:24.388Z,21.55
2018-06-01T05:54:24.617Z,21.61
2018-06-01T05:55:24.756Z,21.69
2018-06-01T05:56:25.135Z,21.79
2018-06-01T05:57:25.222Z,21.99
2018-06-01T05:58:25.412Z,22.47
2018-06-01T05:59:27.351Z,22.57
2018-06-01T06:00:25.796Z,22.65
2018-06-01T06:01:25.984Z,22.78
2018-06-01T06:02:26.171Z,23.05
2018-06-01T06:03:26.350Z,23.34
2018-06-01T06:04:27.132Z,23.66
2018-06-01T06:05:26.719Z,23.86
2018-06-01T06:06:26.900Z,23.91
2018-06-01T06:07:27.088Z,23.58
2018-06-01T06:08:27.273Z,24.16
2018-06-01T06:09:27.455Z,24.91
2018-06-01T06:10:27.645Z,24.77
2018-06-01T06:11:27.831Z,24.99
2018-06-01T06:12:28.020Z,24.84
2018-06-01T06:13:28.219Z,25.23
2018-06-01T06:14:28.389Z,24.68
2018-06-01T06:15:28.576Z,24.65
2018-06-01T06:16:28.771Z,24.54
2018-06-01T06:17:28.951Z,23.56
2018-06-01T06:18:29.146Z,23.06
2018-06-01T06:19:29.330Z,23.15
2018-06-01T06:20:29.518Z,22.91
2018-06-01T06:21:29.702Z,22.90
2018-06-01T06:22:29.897Z,22.83
2018-06-01T06:23:30.075Z,22.29
2018-06-01T06:24:30.262Z,22.38
2018-06-01T06:25:30.433Z,22.10
2018-06-01T06:26:30.633Z,22.11
2018-06-01T06:27:30.813Z,21.82
2018-06-01T06:28:31.003Z,21.55
2018-06-01T06:29:31.180Z,21.45
2018-06-01T06:30:31.369Z,21.48
2018-06-01T06:31:31.566Z,21.45
2018-06-01T06:32:31.761Z,21.29
2018-06-01T06:33:31.939Z,21.33
2018-06-01T06:34:32.134Z,21.29
2018-06-01T06:35:32.306Z,21.18
2018-06-01T06:36:32.492Z,21.21
2018-06-01T06:37:32.677Z,21.24
2018-06-01T06:38:32.871Z,21.27
2018-06-01T06:39:33.051Z,21.20
2018-06-01T06:40:33.238Z,20.96
2018-06-01T06:41:33.424Z,20.93
2018-06-01T06:42:33.606Z,21.03
2018-06-01T06:43:33.794Z,21.07
2018-06-01T06:44:33.979Z,20.95
2018-06-01T06:45:34.164Z,21.07
2018-06-01T06:46:34.357Z,21.33
2018-06-01T06:47:34.777Z,21.58
2018-06-01T06:48:34.729Z,22.41
2018-06-01T06:49:34.906Z,22.62
2018-06-01T06:50:35.093Z,22.41
2018-06-01T06:51:35.282Z,22.11
2018-06-01T06:52:35.462Z,21.93
2018-06-01T06:53:35.650Z,21.85
2018-06-01T06:54:35.834Z,21.77
2018-06-01T06:55:36.028Z,21.79
2018-06-01T06:56:36.205Z,21.99
2018-06-01T06:57:36.390Z,21.95
2018-06-01T06:58:36.579Z,21.92
2018-06-01T06:59:36.779Z,21.82
2018-06-01T07:00:36.946Z,21.52
2018-06-01T07:01:37.136Z,21.33
2018-06-01T07:02:37.375Z,21.43
2018-06-01T07:03:37.507Z,21.35
2018-06-01T07:04:37.692Z,21.30
2018-06-01T07:05:37.878Z,21.42
2018-06-01T07:06:38.065Z,21.48
2018-06-01T07:07:38.254Z,21.27
2018-06-01T07:08:38.436Z,21.43
2018-06-01T07:09:38.615Z,21.42
2018-06-01T07:10:38.853Z,21.29
2018-06-01T07:11:38.978Z,21.32
2018-06-01T07:12:39.173Z,21.15
2018-06-01T07:13:39.351Z,21.14
2018-06-01T07:14:39.542Z,21.00
2018-06-01T07:15:39.727Z,20.93
2018-06-01T07:16:39.903Z,20.90
2018-06-01T07:17:40.092Z,20.88
2018-06-01T07:18:40.276Z,20.75
2018-06-01T07:19:40.467Z,20.65
2018-06-01T07:20:40.640Z,20.69
2018-06-01T07:21:40.816Z,20.56
2018-06-01T07:22:41.006Z,20.47
2018-06-01T07:23:41.175Z,20.55
2018-06-01T07:24:41.361Z,20.65
2018-06-01T07:25:41.552Z,20.80
2018-06-01T07:26:41.727Z,20.78
2018-06-01T07:27:41.980Z,20.88
2018-06-01T07:28:42.099Z,21.00
2018-06-01T07:29:42.283Z,21.06
2018-06-01T07:30:42.469Z,21.22
2018-06-01T07:31:42.662Z,21.25
2018-06-01T07:32:42.836Z,21.39
2018-06-01T07:33:43.023Z,21.51
2018-06-01T07:34:43.211Z,21.67
2018-06-01T07:35:43.390Z,21.42
2018-06-01T07:36:43.574Z,21.55
2018-06-01T07:37:43.765Z,21.54
2018-06-01T07:38:44.010Z,21.54
2018-06-01T07:39:44.129Z,21.54
2018-06-01T07:40:44.315Z,21.45
2018-06-01T07:41:44.514Z,21.51
2018-06-01T07:42:44.936Z,21.48
2018-06-01T07:43:44.872Z,21.22
2018-06-01T07:44:45.060Z,21.35
2018-06-01T07:45:45.242Z,21.40
2018-06-01T07:46:45.431Z,21.25
2018-06-01T07:47:45.613Z,21.09
2018-06-01T07:48:45.796Z,20.99
2018-06-01T07:49:45.993Z,20.88
2018-06-01T07:50:46.164Z,20.99
2018-06-01T07:51:46.355Z,20.92
2018-06-01T07:52:46.538Z,20.95
2018-06-01T07:53:46.723Z,20.80
2018-06-01T07:54:46.903Z,20.74
2018-06-01T07:55:47.089Z,20.78
2018-06-01T07:56:47.266Z,20.80
2018-06-01T07:57:47.445Z,20.85
2018-06-01T07:58:47.636Z,20.95
2018-06-01T07:59:47.817Z,20.92
2018-06-01T08:00:48.008Z,21.00
2018-06-01T08:01:48.221Z,21.00
2018-06-01T08:02:48.388Z,21.11
2018-06-01T08:03:48.561Z,21.09
2018-06-01T08:04:48.746Z,21.03
2018-06-01T08:05:48.937Z,21.06
2018-06-01T08:06:49.116Z,21.00
2018-06-01T08:07:49.320Z,21.12
2018-06-01T08:08:49.494Z,21.21
2018-06-01T08:09:49.677Z,21.18
2018-06-01T08:10:49.870Z,21.24
2018-06-01T08:11:50.054Z,21.27
2018-06-01T08:12:50.240Z,21.36
2018-06-01T08:13:50.664Z,21.24
2018-06-01T08:14:50.607Z,21.37
2018-06-01T08:15:50.795Z,21.40
2018-06-01T08:16:50.993Z,21.48
2018-06-01T08:17:51.183Z,21.33
2018-06-01T08:18:51.354Z,21.39
2018-06-01T08:19:51.545Z,21.45
2018-06-01T08:20:51.735Z,21.52
2018-06-01T08:21:51.907Z,21.50
2018-06-01T08:22:52.097Z,21.55
2018-06-01T08:23:52.286Z,21.61
2018-06-01T08:24:52.475Z,21.61
2018-06-01T08:25:52.655Z,21.69
2018-06-01T08:26:52.872Z,21.70
2018-06-01T08:27:53.024Z,21.75
2018-06-01T08:28:53.199Z,21.93
2018-06-01T08:29:53.374Z,21.96
2018-06-01T08:30:53.560Z,22.00
2018-06-01T08:31:53.749Z,22.00
2018-06-01T08:32:53.946Z,21.99
2018-06-01T08:33:54.124Z,22.04
2018-06-01T08:34:54.314Z,22.02
2018-06-01T08:35:54.488Z,21.95
2018-06-01T08:36:54.683Z,21.98
2018-06-01T08:38:55.040Z,21.85
2018-06-01T08:39:55.230Z,21.72
2018-06-01T08:40:55.410Z,21.70
2018-06-01T08:41:55.612Z,21.70
2018-06-01T08:42:55.818Z,21.77
2018-06-01T08:43:56.001Z,21.76
2018-06-01T08:44:56.184Z,21.75
2018-06-01T08:45:56.368Z,21.85
2018-06-01T08:46:56.549Z,21.88
2018-06-01T08:47:56.744Z,21.96
2018-06-01T08:48:56.941Z,22.07
2018-06-01T08:49:57.180Z,22.14
2018-06-01T08:50:57.228Z,22.11
2018-06-01T08:51:57.418Z,22.02
2018-06-01T08:52:57.599Z,21.93
2018-06-01T08:53:57.783Z,22.08
2018-06-01T08:54:58.072Z,22.22
2018-06-01T08:55:58.157Z,22.35
2018-06-01T08:56:58.402Z,22.15
2018-06-01T08:57:58.587Z,22.08
2018-06-01T08:58:58.856Z,21.85
2018-06-01T08:59:58.955Z,22.04
2018-06-01T09:00:59.135Z,22.13
2018-06-01T09:01:59.323Z,22.10
2018-06-01T09:02:59.511Z,22.14
2018-06-01T09:03:59.690Z,22.11
2018-06-01T09:04:59.898Z,22.10
2018-06-01T09:06:00.062Z,22.23
2018-06-01T09:07:00.246Z,22.11
2018-06-01T09:08:00.428Z,22.08
2018-06-01T09:09:00.867Z,22.07
2018-06-01T09:10:00.809Z,22.10
2018-06-01T09:11:00.980Z,22.22
2018-06-01T09:12:01.167Z,22.11
2018-06-01T09:13:01.376Z,22.04
2018-06-01T09:14:01.554Z,22.04
2018-06-01T09:16:01.948Z,21.61
2018-06-01T09:17:02.107Z,21.79
2018-06-01T09:18:02.293Z,21.89
2018-06-01T09:19:02.488Z,22.02
2018-06-01T09:20:02.665Z,22.04
2018-06-01T09:21:02.884Z,22.25
2018-06-01T09:22:03.032Z,22.41
2018-06-01T09:23:03.221Z,22.45
2018-06-01T09:24:03.408Z,22.41
2018-06-01T09:25:03.584Z,22.32
2018-06-01T09:26:03.791Z,22.44
2018-06-01T09:27:03.974Z,22.36
2018-06-01T09:28:04.161Z,22.38
2018-06-01T09:29:04.348Z,22.33
2018-06-01T09:30:04.541Z,22.38
2018-06-01T09:31:04.717Z,22.39
2018-06-01T09:32:04.908Z,22.43
2018-06-01T09:33:05.093Z,22.59
2018-06-01T09:34:05.276Z,22.65
2018-06-01T09:35:05.463Z,22.76
2018-06-01T09:36:05.641Z,22.91
2018-06-01T09:37:05.834Z,22.96
2018-06-01T09:38:06.010Z,23.09
2018-06-01T09:39:06.199Z,23.13
2018-06-01T09:40:06.391Z,23.21
2018-06-01T09:41:06.583Z,23.21
2018-06-01T09:42:06.759Z,23.17
2018-06-01T09:43:06.946Z,23.23
2018-06-01T09:44:07.133Z,23.05
2018-06-01T09:45:07.320Z,22.75
2018-06-01T09:46:07.502Z,22.78
2018-06-01T09:47:07.689Z,22.81
2018-06-01T09:48:07.869Z,22.76
2018-06-01T09:49:08.057Z,22.70
2018-06-01T09:50:08.240Z,22.91
2018-06-01T09:51:08.428Z,23.05
2018-06-01T09:52:08.612Z,23.12
2018-06-01T09:53:08.795Z,23.28
2018-06-01T09:54:08.989Z,23.46
2018-06-01T09:55:09.166Z,23.48
2018-06-01T09:56:09.350Z,23.55
2018-06-01T09:57:09.538Z,23.66
2018-06-01T09:58:09.738Z,23.58
2018-06-01T09:59:09.915Z,23.48
2018-06-01T10:00:10.106Z,23.02
2018-06-01T10:01:10.291Z,23.10
2018-06-01T10:02:10.484Z,23.09
2018-06-01T10:03:10.680Z,22.99
2018-06-01T10:04:10.853Z,22.98
2018-06-01T10:05:11.037Z,23.09
2018-06-01T10:06:11.227Z,23.13
2018-06-01T10:07:11.412Z,23.34
2018-06-01T10:08:11.595Z,23.46
2018-06-01T10:09:11.782Z,23.43
2018-06-01T10:10:11.977Z,23.41
2018-06-01T10:11:12.154Z,23.28
2018-06-01T10:12:12.339Z,23.21
2018-06-01T10:13:12.523Z,23.12
2018-06-01T10:14:12.708Z,23.23
2018-06-01T10:15:12.943Z,23.13
2018-06-01T10:16:13.069Z,23.05
2018-06-01T10:17:13.275Z,22.76
2018-06-01T10:18:13.465Z,23.00
2018-06-01T10:19:13.655Z,23.31
2018-06-01T10:20:13.830Z,23.51
2018-06-01T10:21:14.029Z,23.63
2018-06-01T10:22:14.212Z,23.69
2018-06-01T10:23:14.414Z,23.93
2018-06-01T10:24:14.578Z,23.71
2018-06-01T10:25:14.764Z,24.01
2018-06-01T10:26:14.941Z,23.98
2018-06-01T10:27:15.125Z,24.02
2018-06-01T10:28:15.317Z,23.65
2018-06-01T10:29:15.498Z,23.62
2018-06-01T10:30:15.679Z,23.51
2018-06-01T10:31:15.867Z,23.47
2018-06-01T10:32:16.056Z,23.47
2018-06-01T10:33:16.237Z,23.47
2018-06-01T10:34:16.423Z,23.46
2018-06-01T10:35:16.613Z,23.62
2018-06-01T10:36:16.797Z,23.78
2018-06-01T10:37:16.983Z,23.93
2018-06-01T10:38:17.167Z,24.08
2018-06-01T10:39:17.366Z,24.33
2018-06-01T10:40:17.545Z,24.42
2018-06-01T10:41:17.730Z,24.54
2018-06-01T10:42:18.335Z,24.55
2018-06-01T10:43:18.139Z,24.30
2018-06-01T10:44:18.317Z,24.45
2018-06-01T10:45:18.508Z,24.48
2018-06-01T10:47:18.859Z,24.10
2018-06-01T10:48:19.055Z,24.11
2018-06-01T10:49:19.235Z,24.21
2018-06-01T10:50:19.416Z,24.28
2018-06-01T10:51:19.614Z,24.39
2018-06-01T10:52:19.785Z,24.35
2018-06-01T10:53:19.972Z,24.36
2018-06-01T10:54:20.213Z,24.18
2018-06-01T10:55:20.347Z,24.30
2018-06-01T10:56:20.540Z,24.53
2018-06-01T10:57:20.729Z,24.53
2018-06-01T10:58:20.930Z,24.58
2018-06-01T10:59:21.106Z,24.51
2018-06-01T11:00:21.300Z,24.85
2018-06-01T11:01:21.483Z,25.01
2018-06-01T11:02:21.674Z,25.26
2018-06-01T11:03:21.920Z,25.43
2018-06-01T11:04:22.046Z,25.41
2018-06-01T11:05:22.220Z,25.58
2018-06-01T11:06:22.417Z,25.46
2018-06-01T11:07:22.578Z,25.23
2018-06-01T11:08:22.769Z,25.16
2018-06-01T11:09:22.960Z,24.99
2018-06-01T11:10:23.146Z,25.14
2018-06-01T11:11:23.339Z,25.28
2018-06-01T11:12:23.541Z,25.32
2018-06-01T11:13:23.730Z,25.38
2018-06-01T11:14:23.934Z,25.36
2018-06-01T11:15:24.117Z,25.26
2018-06-01T11:16:24.286Z,25.29
2018-06-01T11:17:24.477Z,25.23
2018-06-01T11:18:24.662Z,25.32
2018-06-01T11:19:24.863Z,25.53
2018-06-01T11:20:25.025Z,25.44
2018-06-01T11:21:25.311Z,25.48
2018-06-01T11:22:25.401Z,25.62
2018-06-01T11:23:25.586Z,25.66
2018-06-01T11:24:25.776Z,25.95
2018-06-01T11:25:25.965Z,25.93
2018-06-01T11:26:26.161Z,26.02
2018-06-01T11:27:26.351Z,25.77
2018-06-01T11:28:26.527Z,25.83
2018-06-01T11:29:26.732Z,25.93
2018-06-01T11:30:26.909Z,26.09
2018-06-01T11:31:27.100Z,25.80
2018-06-01T11:32:27.273Z,25.60
2018-06-01T11:33:27.467Z,25.55
2018-06-01T11:34:27.650Z,25.80
2018-06-01T11:35:27.844Z,25.98
2018-06-01T11:36:28.025Z,25.98
2018-06-01T11:37:28.206Z,25.81
2018-06-01T11:38:28.492Z,25.60
2018-06-01T11:39:28.583Z,25.85
2018-06-01T11:40:28.780Z,25.78
2018-06-01T11:41:28.959Z,25.75
2018-06-01T11:42:29.141Z,25.63
2018-06-01T11:43:29.332Z,25.63
2018-06-01T11:44:29.516Z,25.59
2018-06-01T11:45:29.714Z,25.55
2018-06-01T11:46:29.902Z,25.59
2018-06-01T11:47:30.091Z,25.63
2018-06-01T11:48:30.278Z,25.60
2018-06-01T11:49:30.456Z,25.81
2018-06-01T11:50:30.741Z,25.85
2018-06-01T11:51:30.833Z,25.54
2018-06-01T11:52:31.051Z,25.62
2018-06-01T11:53:31.203Z,25.53
2018-06-01T11:54:31.391Z,25.59
2018-06-01T11:55:31.579Z,25.66
2018-06-01T11:56:31.778Z,25.69
2018-06-01T11:57:31.946Z,25.75
2018-06-01T11:58:32.133Z,25.70
2018-06-01T11:59:32.331Z,25.91
2018-06-01T12:00:32.560Z,26.15
2018-06-01T12:01:32.689Z,26.13
2018-06-01T12:02:32.918Z,26.34
2018-06-01T12:03:33.061Z,26.38
2018-06-01T12:04:33.235Z,26.37
2018-06-01T12:05:33.423Z,26.48
2018-06-01T12:06:33.621Z,26.44
2018-06-01T12:07:33.800Z,26.36
2018-06-01T12:08:33.985Z,26.09
2018-06-01T12:09:34.174Z,26.15
2018-06-01T12:10:34.367Z,25.99
2018-06-01T12:11:34.551Z,25.62
2018-06-01T12:12:34.737Z,25.85
2018-06-01T12:13:35.778Z,25.87
2018-06-01T12:14:35.142Z,26.02
2018-06-01T12:15:35.317Z,26.23
2018-06-01T12:16:35.505Z,26.02
2018-06-01T12:17:35.747Z,26.15
2018-06-01T12:18:35.887Z,25.81
2018-06-01T12:19:36.066Z,25.70
2018-06-01T12:20:36.261Z,25.75
2018-06-01T12:21:36.431Z,25.77
2018-06-01T12:22:36.660Z,25.84
2018-06-01T12:23:36.808Z,25.99
2018-06-01T12:24:36.987Z,26.18
2018-06-01T12:25:37.166Z,26.15
2018-06-01T12:26:37.358Z,26.19
2018-06-01T12:27:37.555Z,25.95
2018-06-01T12:28:37.734Z,25.88
2018-06-01T12:29:37.921Z,26.15
2018-06-01T12:30:38.111Z,26.19
2018-06-01T12:31:38.300Z,26.36
2018-06-01T12:32:38.487Z,26.51
2018-06-01T12:33:38.679Z,26.60
2018-06-01T12:34:38.884Z,26.48
2018-06-01T12:35:39.034Z,26.43
2018-06-01T12:36:39.226Z,26.44
2018-06-01T12:37:39.412Z,26.48
2018-06-01T12:38:39.619Z,26.38
2018-06-01T12:39:39.783Z,26.43
2018-06-01T12:40:39.969Z,26.26
2018-06-01T12:41:40.162Z,26.07
2018-06-01T12:42:40.352Z,26.16
2018-06-01T12:43:40.525Z,26.22
2018-06-01T12:44:40.965Z,26.06
2018-06-01T12:45:40.902Z,26.03
2018-06-01T12:46:41.092Z,25.91
2018-06-01T12:47:41.284Z,25.90
2018-06-01T12:48:41.470Z,25.91
2018-06-01T12:49:41.640Z,25.54
2018-06-01T12:50:41.831Z,25.59
2018-06-01T12:51:42.016Z,25.50
2018-06-01T12:52:42.193Z,25.51
2018-06-01T12:53:42.388Z,25.50
2018-06-01T12:54:42.552Z,25.66
2018-06-01T12:55:42.738Z,25.73
2018-06-01T12:56:42.915Z,25.81
2018-06-01T12:57:43.089Z,25.84
2018-06-01T12:58:43.610Z,25.80